Kezdőlap
METAR-TAF:

METAR-TAF

Repülőterek :

Prága, Csehország

Prága-Václav Havel repülőtér

földrajzi szélesség: 50-06N, földrajzi hosszúság: 014-15E, magasság: 365 m

Jelenlegi meteorológiai megfigyelések

A jelentés 13 perccel ezelõtt készült, 00:30 UTC
Nyugat-délnyugati szél 4 kt
Hőmérséklet 11°C
Páratartalom 87%
Légköri nyomás 1016 hPa
Látótávolság 10 km, vagy több
Kevés felhő 2500 lábon

METAR: LKPR 240030Z 25004KT 9999 FEW025 11/09 Q1016 NOSIG

Idő: 02:43 (00:43 UTC)

Előrejelzés

A jelentés 1 órával és 43 perccel ezelõtt készült, 23:00 UTC
Az előrejelzés 24-én 00 óra UTC és 25-én 06 óra UTC között érvényes
Nyugat-délnyugati szél 6 kt
Látótávolság 10 km, vagy több
felhőtlen 1500 m magasságban, és nincs gomolyfelhõ
24-én 09 óra UTC és 24-én 17 óra UTC között ideiglenes
Nyugati szél 11 kt széllökések: 22 kt

TAF: LKPR 232300Z 2400/2506 24006KT CAVOK TEMPO 2409/2417 27011G22KT

Meteorológiai megfigyelések és előrejelzések több, mint 4000 repülőtéren (METAR és TAF jelentéseket).

A térképen piros és sárga pontok jelzik az elérhető meteorológiai állomásokat.

Mozgassa az egeret a pont fölött, hogy megjelenjen az állomás neve.

Azután kattintson az időjárási megfigyelések és előrejelzések megtekintéséhez.

A térkép megváltoztatása: kattintson a fekete keresztel jelölt zöld gombra ráközelítéshez, a vonallal jelölt zöld gombra távolításhoz, vagy a zöld nyilakra a szomszédos térképek eléréséhez.


METAR-TAF: